Time;durP1;ratioP1;P1;durP2;ratioP2;P2;SDS_P1;SDS_P2;PMS_P1;PMS_P2;Temp;Humidity;BMP_temperature;BMP_pressure;BME280_temperature;BME280_humidity;BME280_pressure;Samples;Min_cycle;Max_cycle;Signal;HPM_P1;HPM_P2
2023/06/04 00:00:08;;;;;;;;;;;;;;;7.33;58.76;102064.16;108677;1259;59179;-85
2023/06/04 00:02:34;;;;;;;;;;;;;;;7.32;58.88;102061.45;108555;1259;124797;-84
2023/06/04 00:05:00;;;;;;;;;;;;;;;7.29;58.95;102058.34;108664;1262;59379;-84
2023/06/04 00:07:27;;;;;;;;;;;;;;;7.28;59.02;102058.40;108663;1259;125729;-84
2023/06/04 00:09:53;;;;;;;;;;;;;;;7.25;59.05;102056.89;108641;1258;59378;-84
2023/06/04 00:12:20;;;;;;;;;;;;;;;7.23;59.19;102053.09;108698;1260;59445;-84
2023/06/04 00:14:46;;;;;;;;;;;;;;;7.21;59.31;102050.50;108544;1259;124519;-84
2023/06/04 00:17:12;;;;;;;;;;;;;;;7.18;59.28;102049.67;108699;1259;59722;-84
2023/06/04 00:19:39;;;;;;;;;;;;;;;7.16;59.40;102044.78;108551;1258;123923;-83
2023/06/04 00:22:06;;;;;;;;;;;;;;;7.14;59.49;102042.05;108617;1259;59476;-85
2023/06/04 00:24:32;;;;;;;;;;;;;;;7.11;59.59;102044.52;108660;1259;59789;-84
2023/06/04 00:26:58;;;;;;;;;;;;;;;7.09;59.66;102045.43;108570;1259;124092;-84
2023/06/04 00:29:24;;;;;;;;;;;;;;;7.07;59.81;102044.94;108629;1260;60114;-84
2023/06/04 00:31:50;;;;;;;;;;;;;;;7.04;59.82;102048.27;108600;1258;124587;-82
2023/06/04 00:34:19;;;;;;;;;;;;;;;6.99;59.93;102045.02;108749;1261;59797;-83
2023/06/04 00:36:45;;;;;;;;;;;;;;;6.94;60.21;102049.63;108635;1259;59519;-82
2023/06/04 00:39:11;;;;;;;;;;;;;;;6.91;60.15;102049.08;108423;1263;125097;-82
2023/06/04 00:41:37;;;;;;;;;;;;;;;6.89;60.22;102047.01;108603;1259;59465;-83
2023/06/04 00:44:06;;;;;;;;;;;;;;;6.87;60.25;102045.84;108524;1259;123743;-82
2023/06/04 00:46:32;;;;;;;;;;;;;;;6.84;60.28;102048.27;108770;1259;75154;-83
2023/06/04 00:48:58;;;;;;;;;;;;;;;6.80;60.33;102047.90;108708;1259;59589;-83
2023/06/04 00:51:24;;;;;;;;;;;;;;;6.78;60.43;102045.00;108601;1258;123595;-83
2023/06/04 00:53:51;;;;;;;;;;;;;;;6.76;60.52;102045.03;108653;1259;60015;-83
2023/06/04 00:56:17;;;;;;;;;;;;;;;6.75;60.47;102046.18;108550;1259;124447;-83
2023/06/04 00:58:45;;;;;;;;;;;;;;;6.73;60.41;102046.24;108569;1259;59457;-83
2023/06/04 01:01:22;;;;;;;;;;;;;;;6.71;60.38;102041.77;108507;1259;124798;-83
2023/06/04 01:03:49;;;;;;;;;;;;;;;6.69;60.49;102038.84;108547;1259;71145;-83
2023/06/04 01:06:26;;;;;;;;;;;;;;;6.69;60.55;102038.81;108588;1259;59514;-83
2023/06/04 01:08:55;;;;;;;;;;;;;;;6.67;60.55;102035.73;108551;1262;124020;-83
2023/06/04 01:11:31;;;;;;;;;;;;;;;6.64;60.60;102034.70;108731;1259;72368;-82
2023/06/04 01:13:57;;;;;;;;;;;;;;;6.62;60.63;102033.01;108340;1259;124135;-83
2023/06/04 01:16:23;;;;;;;;;;;;;;;6.61;60.71;102029.97;108546;1263;59592;-83
2023/06/04 01:18:51;;;;;;;;;;;;;;;6.59;60.78;102027.79;108676;1260;59376;-83
2023/06/04 01:21:18;;;;;;;;;;;;;;;6.57;60.72;102029.06;108684;1259;124863;-83
2023/06/04 01:23:45;;;;;;;;;;;;;;;6.56;60.91;102028.98;108638;1259;75369;-82
2023/06/04 01:26:11;;;;;;;;;;;;;;;6.55;60.73;102029.61;108664;1259;124561;-83
2023/06/04 01:28:38;;;;;;;;;;;;;;;6.55;60.81;102028.73;108705;1258;72949;-83
2023/06/04 01:31:07;;;;;;;;;;;;;;;6.54;61.03;102027.30;108703;1258;59570;-82
2023/06/04 01:33:33;;;;;;;;;;;;;;;6.53;61.02;102022.83;108561;1259;60173;-83
2023/06/04 01:36:00;;;;;;;;;;;;;;;6.52;61.18;102020.52;108551;1258;59612;-82
2023/06/04 01:38:27;;;;;;;;;;;;;;;6.50;61.19;102018.66;108491;1259;124762;-83
2023/06/04 01:40:56;;;;;;;;;;;;;;;6.49;61.22;102017.02;108495;1259;59630;-83
2023/06/04 01:43:22;;;;;;;;;;;;;;;6.48;61.29;102020.12;108567;1259;124947;-83
2023/06/04 01:45:48;;;;;;;;;;;;;;;6.47;61.30;102019.32;108743;1259;59537;-83
2023/06/04 01:48:15;;;;;;;;;;;;;;;6.44;61.29;102018.11;108698;1259;59977;-83
2023/06/04 01:50:41;;;;;;;;;;;;;;;6.42;61.32;102019.36;108415;1259;124232;-83
2023/06/04 01:53:07;;;;;;;;;;;;;;;6.40;61.32;102019.62;108544;1259;59588;-83
2023/06/04 01:55:34;;;;;;;;;;;;;;;6.38;61.30;102017.27;108528;1259;124582;-83
2023/06/04 01:58:00;;;;;;;;;;;;;;;6.37;61.38;102015.97;108722;1259;59521;-84
2023/06/04 02:00:26;;;;;;;;;;;;;;;6.37;61.38;102014.02;108571;1259;59525;-83
2023/06/04 02:02:55;;;;;;;;;;;;;;;6.36;61.33;102014.88;108535;1259;123972;-83
2023/06/04 02:05:21;;;;;;;;;;;;;;;6.36;61.37;102015.92;108571;1260;72639;-84
2023/06/04 02:07:47;;;;;;;;;;;;;;;6.37;61.41;102014.20;108569;1259;124928;-83
2023/06/04 02:10:14;;;;;;;;;;;;;;;6.37;61.34;102014.89;108680;1259;59616;-83
2023/06/04 02:12:51;;;;;;;;;;;;;;;6.37;61.46;102017.52;108705;1260;59401;-83
2023/06/04 02:15:18;;;;;;;;;;;;;;;6.37;61.42;102015.61;108544;1259;124654;-84
2023/06/04 02:17:45;;;;;;;;;;;;;;;6.37;61.46;102016.83;108659;1258;59394;-83
2023/06/04 02:20:11;;;;;;;;;;;;;;;6.38;61.53;102017.78;108505;1263;124771;-83
2023/06/04 02:22:37;;;;;;;;;;;;;;;6.38;61.49;102017.41;108499;1260;59606;-84
2023/06/04 02:25:04;;;;;;;;;;;;;;;6.39;61.56;102016.26;108529;1266;60080;-84
2023/06/04 02:27:30;;;;;;;;;;;;;;;6.42;61.57;102011.88;108527;1259;123741;-83
2023/06/04 02:29:57;;;;;;;;;;;;;;;6.45;61.68;102015.41;108634;1260;59725;-83
2023/06/04 02:32:23;;;;;;;;;;;;;;;6.49;61.55;102015.25;108547;1258;123857;-83
2023/06/04 02:34:49;;;;;;;;;;;;;;;6.51;61.72;102017.14;108747;1259;59999;-83
2023/06/04 02:37:15;;;;;;;;;;;;;;;6.55;61.63;102013.19;108588;1259;124556;-83
2023/06/04 02:39:42;;;;;;;;;;;;;;;6.59;61.63;102012.62;108754;1258;59380;-84
2023/06/04 02:42:08;;;;;;;;;;;;;;;6.64;61.67;102010.94;108656;1259;59869;-83
2023/06/04 02:44:34;;;;;;;;;;;;;;;6.69;61.55;102010.05;108451;1259;124665;-83
2023/06/04 02:47:00;;;;;;;;;;;;;;;6.74;61.66;102011.05;108592;1259;59484;-83
2023/06/04 02:49:26;;;;;;;;;;;;;;;6.79;61.59;102008.89;108523;1259;124866;-82
2023/06/04 02:51:53;;;;;;;;;;;;;;;6.84;61.51;102008.83;108616;1265;59508;-83
2023/06/04 02:54:19;;;;;;;;;;;;;;;6.88;61.59;102009.79;108749;1260;59681;-83
2023/06/04 02:56:45;;;;;;;;;;;;;;;6.94;61.61;102010.50;108578;1258;124966;-83
2023/06/04 02:59:11;;;;;;;;;;;;;;;6.98;61.59;102012.86;108719;1258;59488;-83
2023/06/04 03:01:38;;;;;;;;;;;;;;;7.04;61.44;102012.14;108544;1261;124606;-83
2023/06/04 03:04:04;;;;;;;;;;;;;;;7.11;61.51;102014.48;108669;1260;73856;-83
2023/06/04 03:06:34;;;;;;;;;;;;;;;7.17;61.55;102014.15;108739;1259;59390;-83
2023/06/04 03:09:00;;;;;;;;;;;;;;;7.26;61.41;102009.93;108596;1260;123928;-83
2023/06/04 03:11:27;;;;;;;;;;;;;;;7.34;61.45;102010.44;108800;1258;59439;-83
2023/06/04 03:13:53;;;;;;;;;;;;;;;7.46;61.38;102012.15;108653;1259;124866;-83
2023/06/04 03:16:20;;;;;;;;;;;;;;;7.55;61.30;102009.18;108608;1259;59452;-83
2023/06/04 03:18:46;;;;;;;;;;;;;;;7.67;61.26;102014.23;108476;1259;59504;-84
2023/06/04 03:21:13;;;;;;;;;;;;;;;7.82;61.16;102018.39;108576;1259;124381;-83
2023/06/04 03:23:39;;;;;;;;;;;;;;;8.12;61.73;102018.13;108583;1259;60288;-84
2023/06/04 03:26:06;;;;;;;;;;;;;;;9.33;63.15;102013.48;108627;1259;124207;-83
2023/06/04 03:28:32;;;;;;;;;;;;;;;11.09;62.81;102004.46;108553;1259;59634;-83
2023/06/04 03:30:58;;;;;;;;;;;;;;;12.62;60.49;102003.75;108497;1259;59454;-83
2023/06/04 03:33:25;;;;;;;;;;;;;;;12.93;57.37;101999.25;108430;1262;124754;-82
2023/06/04 03:35:52;;;;;;;;;;;;;;;12.63;55.95;102001.87;108619;1259;59937;-83
2023/06/04 03:38:18;;;;;;;;;;;;;;;12.35;55.38;102002.60;108558;1259;124757;-86
2023/06/04 03:40:45;;;;;;;;;;;;;;;12.17;55.16;102001.73;108625;1258;72808;-88
2023/06/04 03:43:11;;;;;;;;;;;;;;;12.09;55.03;101998.63;108491;1259;124552;-89
2023/06/04 03:45:38;;;;;;;;;;;;;;;12.22;55.29;101992.77;108728;1259;59415;-88
2023/06/04 03:48:04;;;;;;;;;;;;;;;12.67;55.29;101994.95;108684;1259;59461;-86
2023/06/04 03:50:30;;;;;;;;;;;;;;;13.59;55.66;101987.70;108608;1259;124027;-86
2023/06/04 03:52:57;;;;;;;;;;;;;;;15.56;56.07;101988.70;108632;1259;59394;-83
2023/06/04 03:55:24;;;;;;;;;;;;;;;17.82;54.75;101980.58;108536;1259;124322;-83
2023/06/04 03:57:50;;;;;;;;;;;;;;;19.85;52.57;101978.52;108649;1259;59529;-83
2023/06/04 04:00:16;;;;;;;;;;;;;;;21.59;50.37;101976.91;108621;1259;59499;-83
2023/06/04 04:02:42;;;;;;;;;;;;;;;23.11;48.16;101974.54;108557;1259;124404;-84
2023/06/04 04:05:10;;;;;;;;;;;;;;;24.34;46.03;101970.14;108705;1262;59489;-84
2023/06/04 04:07:37;;;;;;;;;;;;;;;25.38;43.99;101966.80;108608;1259;125161;-84
2023/06/04 04:10:12;;;;;;;;;;;;;;;26.30;42.32;101963.83;108752;1259;59282;-84
2023/06/04 04:12:38;;;;;;;;;;;;;;;27.26;40.77;101965.76;108642;1266;73469;-83
2023/06/04 04:15:05;;;;;;;;;;;;;;;28.12;39.48;101964.55;108588;1259;125143;-84
2023/06/04 04:17:31;;;;;;;;;;;;;;;28.90;38.01;101960.23;108757;1258;59463;-84
2023/06/04 04:19:57;;;;;;;;;;;;;;;29.55;36.65;101956.95;108670;1259;124800;-83
2023/06/04 04:22:23;;;;;;;;;;;;;;;30.13;35.61;101950.33;108767;1259;59127;-84
2023/06/04 04:24:49;;;;;;;;;;;;;;;30.72;34.56;101953.14;108751;1258;59500;-84
2023/06/04 04:27:16;;;;;;;;;;;;;;;31.23;33.46;101951.60;108604;1259;124663;-84
2023/06/04 04:29:43;;;;;;;;;;;;;;;31.70;32.54;101954.45;108716;1259;59417;-84
2023/06/04 04:32:10;;;;;;;;;;;;;;;32.15;31.55;101957.51;108626;1259;126199;-88
2023/06/04 04:34:37;;;;;;;;;;;;;;;32.59;30.70;101952.76;108720;1259;59491;-88
2023/06/04 04:37:03;;;;;;;;;;;;;;;33.15;29.90;101950.70;108560;1260;65870;-88
2023/06/04 04:39:35;;;;;;;;;;;;;;;33.65;29.09;101949.78;108557;1259;124463;-88
2023/06/04 04:42:10;;;;;;;;;;;;;;;34.05;28.32;101946.13;108747;1258;65120;-88
2023/06/04 04:44:38;;;;;;;;;;;;;;;34.49;27.56;101946.65;108508;1259;124363;-87
2023/06/04 04:47:04;;;;;;;;;;;;;;;34.87;26.88;101947.20;108756;1259;59205;-88
2023/06/04 04:49:30;;;;;;;;;;;;;;;35.22;26.33;101947.16;108674;1259;124955;-88
2023/06/04 04:51:56;;;;;;;;;;;;;;;35.55;25.67;101945.55;108544;1259;59411;-88
2023/06/04 04:54:22;;;;;;;;;;;;;;;35.87;25.35;101941.75;108738;1259;59494;-88
2023/06/04 04:57:01;;;;;;;;;;;;;;;36.25;24.96;101941.34;108613;1259;124586;-84
2023/06/04 04:59:28;;;;;;;;;;;;;;;36.68;24.38;101939.84;108651;1259;59395;-83
2023/06/04 05:01:54;;;;;;;;;;;;;;;37.06;23.70;101945.19;108504;1259;125257;-84
2023/06/04 05:04:22;;;;;;;;;;;;;;;37.38;23.41;101942.27;108710;1260;65508;-84
2023/06/04 05:06:48;;;;;;;;;;;;;;;37.58;22.81;101939.57;108701;1264;59321;-84
2023/06/04 05:09:16;;;;;;;;;;;;;;;37.86;22.47;101939.07;108525;1259;124579;-86
2023/06/04 05:11:43;;;;;;;;;;;;;;;38.08;22.35;101940.02;108587;1259;59019;-85
2023/06/04 05:14:10;;;;;;;;;;;;;;;38.37;22.20;101939.17;108465;1259;124221;-84
2023/06/04 05:16:37;;;;;;;;;;;;;;;38.59;21.74;101937.25;108638;1260;59891;-84
2023/06/04 05:19:04;;;;;;;;;;;;;;;38.91;21.52;101937.04;108624;1259;62861;-84
2023/06/04 05:21:30;;;;;;;;;;;;;;;39.36;21.25;101935.94;108476;1259;125322;-85
2023/06/04 05:23:56;;;;;;;;;;;;;;;39.69;20.99;101936.08;108541;1259;59528;-85
2023/06/04 05:26:25;;;;;;;;;;;;;;;39.97;20.51;101932.55;108589;1259;125286;-84
2023/06/04 05:28:51;;;;;;;;;;;;;;;40.17;20.15;101935.58;108628;1259;59722;-85
2023/06/04 05:31:18;;;;;;;;;;;;;;;40.34;19.83;101938.21;108673;1258;124311;-83
2023/06/04 05:33:44;;;;;;;;;;;;;;;40.56;19.65;101937.66;108619;1259;59571;-84
2023/06/04 05:36:10;;;;;;;;;;;;;;;40.51;19.42;101935.34;108651;1264;59631;-83
2023/06/04 05:38:37;;;;;;;;;;;;;;;39.58;18.78;101931.04;108495;1259;125208;-84
2023/06/04 05:41:04;;;;;;;;;;;;;;;37.33;18.61;101927.75;108732;1259;59388;-83
2023/06/04 05:43:36;;;;;;;;;;;;;;;34.86;19.39;101931.83;108513;1259;124921;-85
2023/06/04 05:46:16;;;;;;;;;;;;;;;32.51;20.23;101933.53;108568;1259;59472;-86
2023/06/04 05:48:42;;;;;;;;;;;;;;;30.38;21.07;101932.48;108704;1259;59183;-86
2023/06/04 05:51:09;;;;;;;;;;;;;;;28.40;22.13;101934.09;108485;1259;124969;-89
2023/06/04 05:53:35;;;;;;;;;;;;;;;26.98;23.12;101936.89;108644;1259;59434;-91
2023/06/04 05:56:01;;;;;;;;;;;;;;;25.79;24.20;101936.23;108468;1260;124771;-91
2023/06/04 05:58:28;;;;;;;;;;;;;;;24.78;25.17;101940.28;108618;1259;60038;-90
2023/06/04 06:00:54;;;;;;;;;;;;;;;24.06;26.06;101943.92;108506;1259;59343;-92
2023/06/04 06:03:23;;;;;;;;;;;;;;;23.36;26.72;101944.46;108453;1258;124330;-92
2023/06/04 06:06:01;;;;;;;;;;;;;;;22.78;27.43;101944.53;108744;1262;68006;-91
2023/06/04 06:08:27;;;;;;;;;;;;;;;22.28;28.20;101949.27;108586;1259;125457;-93
2023/06/04 06:10:53;;;;;;;;;;;;;;;21.91;28.93;101947.96;108625;1259;59534;-87
2023/06/04 06:13:20;;;;;;;;;;;;;;;21.58;29.11;101950.54;108606;1259;124229;-86
2023/06/04 06:15:48;;;;;;;;;;;;;;;21.24;29.63;101954.27;108647;1259;59249;-87
2023/06/04 06:18:15;;;;;;;;;;;;;;;20.98;30.21;101954.25;108674;1260;67537;-87
2023/06/04 06:20:41;;;;;;;;;;;;;;;20.77;30.57;101951.55;108572;1259;124873;-86
2023/06/04 06:23:10;;;;;;;;;;;;;;;20.55;30.97;101952.36;108663;1264;59480;-85
2023/06/04 06:25:40;;;;;;;;;;;;;;;20.41;31.17;101954.27;108540;1259;125198;-87
2023/06/04 06:28:07;;;;;;;;;;;;;;;20.32;31.33;101951.20;108619;1259;74979;-87
2023/06/04 06:30:36;;;;;;;;;;;;;;;20.24;31.08;101952.23;108605;1259;65915;-87
2023/06/04 06:33:02;;;;;;;;;;;;;;;20.14;31.03;101950.23;108484;1259;125766;-86
2023/06/04 06:35:31;;;;;;;;;;;;;;;20.04;31.20;101948.77;108713;1259;59256;-86
2023/06/04 06:37:57;;;;;;;;;;;;;;;19.97;31.22;101950.70;107633;1259;124525;-93
2023/06/04 06:40:24;;;;;;;;;;;;;;;19.92;31.26;101949.96;107271;1259;59644;-92
2023/06/04 06:42:53;;;;;;;;;;;;;;;19.84;31.48;101948.66;107412;1259;59732;-91
2023/06/04 06:45:19;;;;;;;;;;;;;;;19.73;31.87;101952.49;107447;1258;124559;-85
2023/06/04 06:47:47;;;;;;;;;;;;;;;19.71;32.05;101951.40;107481;1263;61303;-91
2023/06/04 06:50:14;;;;;;;;;;;;;;;19.74;31.71;101949.84;107310;1259;126038;-92
2023/06/04 06:52:43;;;;;;;;;;;;;;;19.72;31.49;101949.81;107292;1259;72945;-89
2023/06/04 06:55:10;;;;;;;;;;;;;;;19.71;31.25;101948.73;107299;1259;65514;-92
2023/06/04 06:57:40;;;;;;;;;;;;;;;19.65;31.00;101950.81;107115;1259;124290;-90
2023/06/04 07:00:16;;;;;;;;;;;;;;;19.58;30.78;101952.55;107504;1259;59674;-92
2023/06/04 07:02:46;;;;;;;;;;;;;;;19.55;30.46;101952.54;107543;1259;125031;-95
2023/06/04 07:05:17;;;;;;;;;;;;;;;19.50;30.30;101948.23;107419;1262;75200;-85
2023/06/04 07:07:43;;;;;;;;;;;;;;;19.41;30.00;101948.15;107120;1260;125927;-85
2023/06/04 07:10:18;;;;;;;;;;;;;;;19.25;29.94;101949.63;107427;1263;71259;-85
2023/06/04 07:12:45;;;;;;;;;;;;;;;19.18;30.25;101949.21;107307;1263;61377;-85
2023/06/04 07:15:20;;;;;;;;;;;;;;;19.21;30.30;101945.87;107357;1258;124817;-85
2023/06/04 07:20:41;;;;;;;;;;;;;;;19.20;30.31;101951.19;108553;1259;124298;-86
2023/06/04 07:23:07;;;;;;;;;;;;;;;19.27;30.37;101952.68;108683;1259;60423;-85
2023/06/04 07:25:33;;;;;;;;;;;;;;;19.34;30.29;101954.70;108587;1262;124354;-87
2023/06/04 07:28:03;;;;;;;;;;;;;;;19.40;30.35;101954.20;108572;1264;59635;-86
2023/06/04 07:30:31;;;;;;;;;;;;;;;19.47;30.28;101954.77;108660;1259;73002;-85
2023/06/04 07:33:01;;;;;;;;;;;;;;;19.53;30.33;101959.11;108586;1259;125435;-85
2023/06/04 07:35:30;;;;;;;;;;;;;;;19.52;30.00;101955.17;108652;1259;72563;-85
2023/06/04 07:37:56;;;;;;;;;;;;;;;19.51;30.02;101956.42;108500;1259;125908;-86
2023/06/04 07:40:52;;;;;;;;;;;;;;;19.47;29.96;101953.73;108588;1262;59522;-86
2023/06/04 07:47:02;;;;;;;;;;;;;;;19.59;29.89;101955.77;108077;1263;67148;-86
2023/06/04 07:49:28;;;;;;;;;;;;;;;19.61;29.64;101957.39;108513;1257;126057;-83
2023/06/04 07:51:54;;;;;;;;;;;;;;;19.62;29.61;101957.04;108618;1263;59420;-83
2023/06/04 07:54:21;;;;;;;;;;;;;;;19.68;29.54;101957.07;108692;1264;59302;-80
2023/06/04 08:00:21;;;;;;;;;;;;;;;19.78;29.44;101949.69;107706;1266;66939;-83
2023/06/04 08:02:50;;;;;;;;;;;;;;;19.83;29.38;101949.71;108606;1260;124232;-83
2023/06/04 08:05:16;;;;;;;;;;;;;;;19.86;29.31;101949.56;108714;1274;59504;-83
2023/06/04 08:07:43;;;;;;;;;;;;;;;19.89;29.42;101948.87;108502;1275;124599;-83
2023/06/04 08:10:09;;;;;;;;;;;;;;;19.96;29.54;101952.99;108628;1259;75138;-84
2023/06/04 08:12:36;;;;;;;;;;;;;;;19.96;29.50;101952.98;108626;1259;59142;-86
2023/06/04 08:15:02;;;;;;;;;;;;;;;20.02;29.64;101950.89;108464;1260;124272;-85
2023/06/04 08:17:28;;;;;;;;;;;;;;;20.12;29.58;101945.95;108636;1263;59095;-83
2023/06/04 08:19:55;;;;;;;;;;;;;;;20.22;29.55;101949.91;108525;1259;124882;-83
2023/06/04 08:22:21;;;;;;;;;;;;;;;20.33;29.62;101947.10;108697;1261;59150;-84
2023/06/04 08:24:48;;;;;;;;;;;;;;;20.45;29.51;101946.42;108660;1259;59413;-83
2023/06/04 08:27:14;;;;;;;;;;;;;;;20.42;29.22;101950.89;108588;1260;125540;-83
2023/06/04 08:29:40;;;;;;;;;;;;;;;20.25;29.30;101950.63;108666;1259;59825;-83
2023/06/04 08:32:07;;;;;;;;;;;;;;;20.17;29.38;101947.39;108610;1258;124750;-82
2023/06/04 08:34:33;;;;;;;;;;;;;;;20.21;29.47;101951.16;108711;1260;59688;-83
2023/06/04 08:36:59;;;;;;;;;;;;;;;20.28;29.22;101949.23;108669;1260;59507;-83
2023/06/04 08:39:26;;;;;;;;;;;;;;;20.38;28.95;101947.48;108579;1264;125030;-83
2023/06/04 08:41:54;;;;;;;;;;;;;;;20.54;29.11;101950.92;108653;1263;59495;-84
2023/06/04 08:44:20;;;;;;;;;;;;;;;20.71;29.05;101949.21;108557;1265;124143;-83
2023/06/04 08:50:32;;;;;;;;;;;;;;;20.84;28.28;101946.02;108155;1265;124693;-81
2023/06/04 08:53:43;;;;;;;;;;;;;;;;;;;;;
2023/06/04 08:57:29;;;;;;;;;;;;;;;20.96;29.78;101947.66;108136;1267;124968;-83
2023/06/04 09:00:19;;;;;;;;;;;;;;;21.17;29.45;101948.55;105782;1268;60660;-82
2023/06/04 09:03:04;;;;;;;;;;;;;;;21.33;30.19;101949.80;108165;1263;124832;-82
2023/06/04 09:05:54;;;;;;;;;;;;;;;21.51;29.90;101951.06;108330;1275;69888;-82
2023/06/04 09:08:45;;;;;;;;;;;;;;;21.61;29.40;101950.52;107990;1272;72772;-82
2023/06/04 09:11:37;;;;;;;;;;;;;;;21.77;29.42;101947.63;108116;1272;60065;-80
2023/06/04 09:14:10;;;;;;;;;;;;;;;21.93;29.17;101945.27;107963;1267;125450;-80
2023/06/04 09:16:50;;;;;;;;;;;;;;;22.08;29.19;101950.74;107982;1267;74649;-81
2023/06/04 09:19:16;;;;;;;;;;;;;;;22.20;28.89;101949.45;108206;1268;65939;-81
2023/06/04 09:21:52;;;;;;;;;;;;;;;22.30;28.77;101946.59;108100;1264;125160;-82
2023/06/04 09:24:19;;;;;;;;;;;;;;;22.40;28.77;101946.73;108314;1278;59734;-82
2023/06/04 09:26:46;;;;;;;;;;;;;;;22.52;28.35;101950.77;108144;1264;125183;-82
2023/06/04 09:29:15;;;;;;;;;;;;;;;22.55;27.74;101945.20;108250;1263;74747;-81
2023/06/04 09:31:44;;;;;;;;;;;;;;;22.50;27.76;101940.05;108227;1279;68685;-81
2023/06/04 09:34:30;;;;;;;;;;;;;;;22.51;27.82;101936.99;108318;1264;72427;-81
2023/06/04 09:36:56;;;;;;;;;;;;;;;22.58;27.58;101935.89;108330;1264;59230;-82
2023/06/04 09:39:26;;;;;;;;;;;;;;;22.66;27.75;101932.08;108379;1260;124761;-81
2023/06/04 09:42:00;;;;;;;;;;;;;;;22.79;27.59;101929.84;108706;1261;74668;-81
2023/06/04 09:44:26;;;;;;;;;;;;;;;22.88;27.37;101924.23;108492;1260;124413;-81
2023/06/04 09:46:53;;;;;;;;;;;;;;;22.99;27.61;101930.24;108579;1264;59430;-82
2023/06/04 09:49:19;;;;;;;;;;;;;;;23.16;27.42;101926.55;108536;1260;59149;-82
2023/06/04 09:51:48;;;;;;;;;;;;;;;23.34;27.30;101924.95;108609;1260;125799;-82
2023/06/04 09:54:15;;;;;;;;;;;;;;;23.47;27.33;101931.09;108649;1264;75032;-82
2023/06/04 09:56:45;;;;;;;;;;;;;;;23.54;27.14;101930.85;108515;1260;124646;-82
2023/06/04 09:59:11;;;;;;;;;;;;;;;23.57;26.93;101929.92;108647;1260;73292;-82
2023/06/04 10:01:43;;;;;;;;;;;;;;;23.57;26.71;101926.52;108642;1266;59507;-81
2023/06/04 10:04:11;;;;;;;;;;;;;;;23.57;26.66;101927.23;108685;1263;59253;-81
2023/06/04 10:06:38;;;;;;;;;;;;;;;23.64;26.99;101931.29;108602;1266;75449;-81
2023/06/04 10:09:13;;;;;;;;;;;;;;;23.75;26.55;101933.31;108507;1261;125516;-81
2023/06/04 10:11:41;;;;;;;;;;;;;;;23.80;26.01;101939.20;108572;1260;72301;-82
2023/06/04 10:14:11;;;;;;;;;;;;;;;23.73;25.61;101931.91;108494;1260;124594;-84
2023/06/04 10:16:37;;;;;;;;;;;;;;;23.68;25.70;101938.41;108614;1264;60153;-83
2023/06/04 10:19:04;;;;;;;;;;;;;;;23.59;26.64;101934.38;108685;1263;59725;-83
2023/06/04 10:21:34;;;;;;;;;;;;;;;23.33;27.31;101930.69;108646;1261;124734;-83
2023/06/04 10:24:00;;;;;;;;;;;;;;;22.99;27.52;101925.59;108638;1261;71367;-83
2023/06/04 10:26:27;;;;;;;;;;;;;;;22.77;28.13;101925.92;108667;1260;125514;-82
2023/06/04 10:28:53;;;;;;;;;;;;;;;22.62;28.42;101921.73;108727;1260;59128;-83
2023/06/04 10:31:19;;;;;;;;;;;;;;;22.51;28.60;101927.33;108737;1261;59647;-83
2023/06/04 10:33:46;;;;;;;;;;;;;;;22.33;28.66;101933.15;108615;1261;125113;-82
2023/06/04 10:36:21;;;;;;;;;;;;;;;22.01;28.93;101933.45;108707;1259;59453;-81
2023/06/04 10:38:48;;;;;;;;;;;;;;;21.60;29.31;101935.86;108537;1260;124731;-82
2023/06/04 10:41:15;;;;;;;;;;;;;;;21.32;29.51;101936.77;108565;1260;59360;-82
2023/06/04 10:43:42;;;;;;;;;;;;;;;21.16;29.89;101934.27;108585;1260;74809;-82
2023/06/04 10:46:15;;;;;;;;;;;;;;;21.06;29.87;101936.05;108561;1261;124078;-82
2023/06/04 10:48:45;;;;;;;;;;;;;;;20.94;29.98;101931.58;108742;1261;72058;-82
2023/06/04 10:51:11;;;;;;;;;;;;;;;20.92;30.25;101934.79;108576;1261;124563;-81
2023/06/04 10:53:37;;;;;;;;;;;;;;;20.90;30.19;101932.11;108722;1260;59429;-82
2023/06/04 10:56:04;;;;;;;;;;;;;;;20.84;30.24;101930.33;108604;1261;124691;-82
2023/06/04 10:58:33;;;;;;;;;;;;;;;20.79;30.53;101929.95;108590;1261;59517;-82
2023/06/04 11:00:59;;;;;;;;;;;;;;;20.81;30.69;101934.42;108583;1260;72829;-82
2023/06/04 11:03:38;;;;;;;;;;;;;;;20.83;30.72;101932.83;108636;1259;125249;-82
2023/06/04 11:06:16;;;;;;;;;;;;;;;20.76;30.80;101929.79;108670;1260;61514;-82
2023/06/04 11:08:43;;;;;;;;;;;;;;;20.68;30.83;101930.83;108555;1260;125153;-82
2023/06/04 11:11:13;;;;;;;;;;;;;;;20.58;31.02;101927.75;108646;1261;59427;-82
2023/06/04 11:13:40;;;;;;;;;;;;;;;20.54;31.17;101925.23;108662;1260;73215;-82
2023/06/04 11:16:18;;;;;;;;;;;;;;;20.47;31.11;101927.55;108656;1260;123899;-82
2023/06/04 11:18:55;;;;;;;;;;;;;;;20.30;31.38;101923.75;108651;1260;59397;-82
2023/06/04 11:21:21;;;;;;;;;;;;;;;20.27;31.56;101926.05;108613;1260;124844;-81
2023/06/04 11:23:47;;;;;;;;;;;;;;;20.28;31.42;101925.16;108623;1264;59393;-82
2023/06/04 11:26:13;;;;;;;;;;;;;;;20.25;31.39;101929.42;108497;1260;124499;-82
2023/06/04 11:28:44;;;;;;;;;;;;;;;20.20;31.34;101932.98;108551;1261;59454;-82
2023/06/04 11:31:11;;;;;;;;;;;;;;;20.10;31.47;101926.52;108703;1261;60038;-82
2023/06/04 11:33:43;;;;;;;;;;;;;;;20.09;31.95;101937.56;108621;1261;124529;-82
2023/06/04 11:36:10;;;;;;;;;;;;;;;20.00;31.89;101938.06;108678;1260;67129;-82
2023/06/04 11:38:53;;;;;;;;;;;;;;;19.89;32.12;101936.04;108481;1261;125105;-83
2023/06/04 11:41:20;;;;;;;;;;;;;;;19.84;32.21;101936.55;108670;1258;59527;-82
2023/06/04 11:43:49;;;;;;;;;;;;;;;19.86;32.12;101938.33;108546;1261;124258;-82
2023/06/04 11:46:15;;;;;;;;;;;;;;;19.81;32.15;101936.18;108607;1264;74382;-82
2023/06/04 11:48:42;;;;;;;;;;;;;;;19.81;32.29;101936.53;108732;1273;59825;-83
2023/06/04 11:51:09;;;;;;;;;;;;;;;19.85;32.22;101936.91;108520;1260;124931;-83
2023/06/04 11:53:36;;;;;;;;;;;;;;;19.90;32.46;101935.52;108663;1260;59054;-82
2023/06/04 11:56:02;;;;;;;;;;;;;;;19.88;32.50;101944.05;108580;1261;124220;-82
2023/06/04 11:58:28;;;;;;;;;;;;;;;19.75;32.64;101932.58;108698;1260;59317;-82
2023/06/04 12:00:55;;;;;;;;;;;;;;;19.68;32.75;101939.61;108679;1260;59476;-82
2023/06/04 12:03:31;;;;;;;;;;;;;;;19.53;33.01;101933.47;108511;1260;124991;-82
2023/06/04 12:05:57;;;;;;;;;;;;;;;19.48;33.40;101931.47;108692;1261;59029;-82
2023/06/04 12:08:23;;;;;;;;;;;;;;;19.45;33.61;101934.13;108511;1260;124287;-82
2023/06/04 12:10:50;;;;;;;;;;;;;;;19.35;33.86;101936.00;108588;1260;59641;-82
2023/06/04 12:13:16;;;;;;;;;;;;;;;19.28;34.10;101937.91;108606;1260;60020;-83
2023/06/04 12:15:43;;;;;;;;;;;;;;;19.28;34.34;101934.54;108569;1259;124268;-83
2023/06/04 12:18:15;;;;;;;;;;;;;;;19.27;34.26;101942.52;108617;1261;59336;-82
2023/06/04 12:20:49;;;;;;;;;;;;;;;19.18;34.18;101946.55;108445;1259;125574;-84
2023/06/04 12:23:40;;;;;;;;;;;;;;;19.06;34.35;101947.70;108623;1257;73791;-83
2023/06/04 12:26:43;;;;;;;;;;;;;;;;;;;;;
2023/06/04 12:29:36;;;;;;;;;;;;;;;19.02;34.42;101946.58;108656;1259;71764;-83
2023/06/04 12:32:07;;;;;;;;;;;;;;;18.99;34.51;101946.90;108559;1259;124702;-83
2023/06/04 12:34:40;;;;;;;;;;;;;;;18.98;34.44;101953.84;108652;1260;59236;-82
2023/06/04 12:37:07;;;;;;;;;;;;;;;18.92;34.36;101949.52;108587;1261;76128;-83
2023/06/04 12:39:39;;;;;;;;;;;;;;;18.95;34.51;101949.37;108603;1260;124257;-83
2023/06/04 12:42:06;;;;;;;;;;;;;;;19.00;34.34;101946.75;108676;1260;72705;-83
2023/06/04 12:44:32;;;;;;;;;;;;;;;18.94;34.41;101947.40;108622;1258;124574;-83
2023/06/04 12:46:59;;;;;;;;;;;;;;;18.92;34.60;101956.45;108670;1259;59226;-83
2023/06/04 12:49:28;;;;;;;;;;;;;;;18.89;34.60;101953.92;108671;1259;59224;-83